Time;durP1;ratioP1;P1;durP2;ratioP2;P2;SDS_P1;SDS_P2;PMS_P1;PMS_P2;Temp;Humidity;BMP_temperature;BMP_pressure;BME280_temperature;BME280_humidity;BME280_pressure;Samples;Min_cycle;Max_cycle;Signal;HPM_P1;HPM_P2
2022/07/26 00:01:12;;;;;;;12.00;2.40;;;;;;;19.76;100.00;101252.81;4723289;30;20074;-61
2022/07/26 00:03:39;;;;;;;11.32;2.15;;;;;;;19.77;100.00;101257.09;4740948;30;20574;-62
2022/07/26 00:06:05;;;;;;;10.73;2.28;;;;;;;19.78;100.00;101253.44;4734426;30;20056;-62
2022/07/26 00:08:32;;;;;;;12.27;2.17;;;;;;;19.81;100.00;101254.88;4740955;30;20068;-62
2022/07/26 00:10:59;;;;;;;10.55;2.38;;;;;;;19.71;100.00;101257.88;4748265;30;20064;-62
2022/07/26 00:13:33;;;;;;;11.13;2.00;;;;;;;19.67;100.00;101257.44;4734193;30;20554;-61
2022/07/26 00:15:59;;;;;;;4.73;2.23;;;;;;;19.74;100.00;101253.00;4755600;30;20055;-63
2022/07/26 00:18:26;;;;;;;10.02;2.05;;;;;;;19.70;100.00;101258.91;4736620;30;20068;-62
2022/07/26 00:20:53;;;;;;;8.35;2.08;;;;;;;19.72;100.00;101260.38;4739899;30;20068;-62
2022/07/26 00:23:21;;;;;;;9.65;2.10;;;;;;;19.68;100.00;101260.91;4736312;30;20072;-61
2022/07/26 00:25:47;;;;;;;9.63;1.92;;;;;;;19.65;100.00;101253.34;4733154;30;20061;-62
2022/07/26 00:28:13;;;;;;;8.95;2.10;;;;;;;19.62;100.00;101261.69;4746949;30;20063;-61
2022/07/26 00:30:40;;;;;;;5.60;1.92;;;;;;;19.67;100.00;101253.97;4732359;30;20160;-62
2022/07/26 00:33:07;;;;;;;7.60;1.92;;;;;;;19.69;100.00;101259.91;4738924;30;20055;-61
2022/07/26 00:35:33;;;;;;;12.88;2.28;;;;;;;19.60;100.00;101256.59;4731186;30;20523;-63
2022/07/26 00:38:00;;;;;;;11.93;1.95;;;;;;;19.60;100.00;101259.25;4744951;30;20086;-63
2022/07/26 00:40:26;;;;;;;10.60;2.40;;;;;;;19.65;100.00;101263.97;4743821;30;20077;-61
2022/07/26 00:42:53;;;;;;;10.88;2.03;;;;;;;19.64;100.00;101264.97;4733279;30;20067;-62
2022/07/26 00:45:20;;;;;;;7.32;1.83;;;;;;;19.69;100.00;101258.06;4734054;30;20066;-63
2022/07/26 00:47:46;;;;;;;8.32;2.50;;;;;;;19.64;100.00;101265.81;4746284;30;20068;-62
2022/07/26 00:50:15;;;;;;;14.48;2.42;;;;;;;19.63;100.00;101256.19;4746156;30;20060;-62
2022/07/26 00:52:43;;;;;;;9.27;1.80;;;;;;;19.63;100.00;101263.34;4737309;30;20146;-61
2022/07/26 00:55:10;;;;;;;7.10;1.52;;;;;;;19.62;100.00;101265.19;4732374;30;20085;-61
2022/07/26 00:57:37;;;;;;;7.22;1.70;;;;;;;19.61;100.00;101268.06;4732343;30;20396;-61
2022/07/26 01:00:07;;;;;;;10.88;2.15;;;;;;;19.61;100.00;101262.72;4733310;30;20052;-61
2022/07/26 01:02:33;;;;;;;8.73;2.10;;;;;;;19.60;100.00;101269.06;4741592;30;20075;-62
2022/07/26 01:05:00;;;;;;;7.43;1.80;;;;;;;19.58;100.00;101268.44;4728244;30;20071;-62
2022/07/26 01:07:28;;;;;;;8.10;1.65;;;;;;;19.54;100.00;101263.50;4734144;30;20052;-62
2022/07/26 01:09:54;;;;;;;5.93;2.17;;;;;;;19.56;100.00;101264.13;4724962;30;20072;-61
2022/07/26 01:12:20;;;;;;;7.95;2.08;;;;;;;19.54;100.00;101260.84;4745249;30;20070;-62
2022/07/26 01:14:47;;;;;;;14.40;2.00;;;;;;;19.50;100.00;101270.25;4726567;30;20437;-62
2022/07/26 01:17:14;;;;;;;6.35;1.98;;;;;;;19.47;100.00;101256.50;4739605;30;20076;-62
2022/07/26 01:19:41;;;;;;;7.15;1.80;;;;;;;19.40;100.00;101258.28;4746623;30;20094;-62
2022/07/26 01:22:07;;;;;;;9.77;2.15;;;;;;;19.39;100.00;101257.47;4740440;30;20066;-62
2022/07/26 01:24:39;;;;;;;7.68;1.80;;;;;;;19.38;100.00;101249.69;4738803;30;20128;-63
2022/07/26 01:27:06;;;;;;;7.10;1.80;;;;;;;19.41;100.00;101252.78;4723518;30;20056;-63
2022/07/26 01:29:33;;;;;;;10.05;2.10;;;;;;;19.37;100.00;101248.88;4742484;30;20520;-62
2022/07/26 01:32:02;;;;;;;;;;;;;;;19.40;100.00;101251.13;4745212;30;20052;-62
2022/07/26 01:34:29;;;;;;;7.82;2.53;;;;;;;19.40;100.00;101247.63;4737456;30;19933;-64
2022/07/26 01:36:56;;;;;;;6.78;2.10;;;;;;;19.42;100.00;101245.59;4740272;30;20514;-63
2022/07/26 01:39:22;;;;;;;7.13;1.75;;;;;;;19.39;100.00;101249.50;4729243;30;20065;-63
2022/07/26 01:41:49;;;;;;;9.27;2.17;;;;;;;19.38;100.00;101247.00;4738229;30;20064;-63
2022/07/26 01:44:15;;;;;;;13.07;2.42;;;;;;;19.36;100.00;101249.88;4729426;30;20383;-63
2022/07/26 01:46:42;;;;;;;11.10;2.05;;;;;;;19.32;100.00;101253.94;4730397;30;20065;-63
2022/07/26 01:49:08;;;;;;;8.57;2.00;;;;;;;19.33;100.00;101250.28;4746155;30;20064;-62
2022/07/26 01:51:35;;;;;;;9.35;2.00;;;;;;;19.38;100.00;101258.47;4717542;30;20095;-64
2022/07/26 01:54:01;;;;;;;13.82;2.50;;;;;;;19.31;100.00;101261.09;4739790;30;20075;-63
2022/07/26 01:56:28;;;;;;;9.20;2.40;;;;;;;19.26;100.00;101257.38;4732884;30;20411;-62
2022/07/26 01:58:54;;;;;;;9.60;2.90;;;;;;;19.22;100.00;101262.25;4746208;30;20654;-62
2022/07/26 02:01:21;;;;;;;8.32;2.20;;;;;;;19.23;100.00;101258.59;4729482;30;20070;-61
2022/07/26 02:04:05;;;;;;;7.68;2.60;;;;;;;19.20;100.00;101268.78;4738453;30;20071;-61
2022/07/26 02:06:32;;;;;;;12.80;2.75;;;;;;;19.12;100.00;101262.56;4742142;30;20056;-61
2022/07/26 02:08:59;;;;;;;13.00;3.03;;;;;;;19.12;100.00;101267.06;4727580;30;20192;-62
2022/07/26 02:11:27;;;;;;;10.97;2.60;;;;;;;19.14;100.00;101265.84;4748377;30;20485;-62
2022/07/26 02:13:53;;;;;;;10.52;1.98;;;;;;;19.13;100.00;101268.72;4740050;30;20817;-60
2022/07/26 02:16:20;;;;;;;13.00;2.65;;;;;;;19.15;100.00;101264.84;4744340;30;20605;-62
2022/07/26 02:18:46;;;;;;;12.82;3.13;;;;;;;19.14;100.00;101265.84;4744213;30;20506;-61
2022/07/26 02:21:13;;;;;;;13.15;2.75;;;;;;;19.17;100.00;101275.31;4740301;30;20067;-61
2022/07/26 02:23:39;;;;;;;10.95;2.67;;;;;;;19.12;100.00;101265.22;4737329;30;20362;-59
2022/07/26 02:26:07;;;;;;;12.40;2.50;;;;;;;19.08;100.00;101266.63;4734427;30;20059;-61
2022/07/26 02:28:33;;;;;;;12.88;3.03;;;;;;;19.02;100.00;101269.25;4739317;30;20495;-61
2022/07/26 02:30:59;;;;;;;9.80;2.50;;;;;;;19.01;100.00;101268.41;4739114;30;20701;-62
2022/07/26 02:33:26;;;;;;;8.32;2.70;;;;;;;19.04;100.00;101261.91;4742421;30;20130;-61
2022/07/26 02:35:53;;;;;;;9.55;2.90;;;;;;;19.03;100.00;101266.38;4726733;30;20060;-62
2022/07/26 02:38:19;;;;;;;9.55;2.65;;;;;;;18.87;100.00;101270.13;4730611;30;20060;-61
2022/07/26 02:40:49;;;;;;;7.68;3.03;;;;;;;18.86;100.00;101265.84;4745999;29;20494;-62
2022/07/26 02:43:15;;;;;;;7.25;2.35;;;;;;;18.89;100.00;101268.09;4740828;30;20084;-63
2022/07/26 02:45:42;;;;;;;7.97;2.65;;;;;;;18.87;100.00;101270.13;4744217;30;20080;-62
2022/07/26 02:48:09;;;;;;;7.47;3.17;;;;;;;18.89;100.00;101273.41;4733881;30;20147;-62
2022/07/26 02:50:35;;;;;;;9.30;2.97;;;;;;;18.90;100.00;101283.03;4750326;30;20070;-62
2022/07/26 02:53:02;;;;;;;10.18;2.90;;;;;;;18.86;100.00;101276.47;4720999;30;20070;-62
2022/07/26 02:55:28;;;;;;;8.80;3.28;;;;;;;18.85;100.00;101287.28;4743960;30;20064;-62
2022/07/26 02:57:55;;;;;;;9.75;3.28;;;;;;;18.87;100.00;101286.06;4751321;30;20071;-62
2022/07/26 03:00:24;;;;;;;10.95;2.65;;;;;;;18.93;100.00;101287.16;4740548;30;20064;-63
2022/07/26 03:02:52;;;;;;;6.45;2.58;;;;;;;18.91;100.00;101289.19;4735254;30;20075;-63
2022/07/26 03:05:20;;;;;;;7.15;2.53;;;;;;;18.94;100.00;101291.47;4729257;30;20111;-63
2022/07/26 03:07:46;;;;;;;8.07;2.53;;;;;;;18.91;100.00;101294.50;4745435;30;20048;-63
2022/07/26 03:10:13;;;;;;;9.02;2.40;;;;;;;18.87;100.00;101288.72;4737181;30;20068;-63
2022/07/26 03:12:58;;;;;;;8.20;2.70;;;;;;;18.87;100.00;101293.22;4720730;30;20425;-63
2022/07/26 03:15:24;;;;;;;10.38;2.53;;;;;;;18.86;100.00;101302.22;4737125;30;20068;-63
2022/07/26 03:17:51;;;;;;;11.30;2.83;;;;;;;18.86;100.00;101300.38;4742672;30;20060;-63
2022/07/26 03:20:17;;;;;;;9.45;2.63;;;;;;;18.90;100.00;101304.31;4739779;30;20060;-63
2022/07/26 03:22:43;;;;;;;7.72;2.75;;;;;;;18.86;100.00;101312.84;4736549;30;20056;-63
2022/07/26 03:25:10;;;;;;;8.60;2.95;;;;;;;18.77;100.00;101315.59;4736555;30;20056;-64
2022/07/26 03:27:36;;;;;;;6.57;2.70;;;;;;;18.80;100.00;101313.59;4726061;30;20060;-62
2022/07/26 03:30:04;;;;;;;9.02;3.03;;;;;;;18.89;100.00;101310.63;4737925;30;20060;-63
2022/07/26 03:32:31;;;;;;;9.20;3.10;;;;;;;18.90;100.00;101314.13;4733538;30;20071;-63
2022/07/26 03:34:57;;;;;;;8.32;3.33;;;;;;;18.88;100.00;101313.50;4743059;30;20064;-63
2022/07/26 03:37:24;;;;;;;7.90;3.17;;;;;;;18.89;100.00;101312.47;4748247;30;20063;-62
2022/07/26 03:40:10;;;;;;;9.45;3.25;;;;;;;18.91;100.00;101310.44;4734521;30;20490;-63
2022/07/26 03:42:37;;;;;;;10.52;3.47;;;;;;;18.90;100.00;101314.94;4733149;30;20585;-65
2022/07/26 03:45:04;;;;;;;7.38;3.10;;;;;;;18.98;100.00;101326.47;4740193;30;20056;-60
2022/07/26 03:47:30;;;;;;;9.48;2.90;;;;;;;18.96;100.00;101310.69;4742066;30;20146;-62
2022/07/26 03:49:57;;;;;;;11.32;3.55;;;;;;;19.00;100.00;101319.94;4741423;30;20587;-62
2022/07/26 03:52:23;;;;;;;10.90;3.30;;;;;;;18.97;100.00;101317.66;4748005;30;20060;-62
2022/07/26 03:54:49;;;;;;;16.13;3.65;;;;;;;18.88;100.00;101324.94;4751579;30;20075;-62
2022/07/26 03:57:16;;;;;;;10.20;3.40;;;;;;;18.93;100.00;101324.38;4742811;30;20067;-63
2022/07/26 03:59:42;;;;;;;10.40;3.80;;;;;;;18.93;100.00;101327.88;4743711;30;20618;-62
2022/07/26 04:02:09;;;;;;;13.15;3.95;;;;;;;18.88;100.00;101332.09;4730097;30;20076;-62
2022/07/26 04:04:35;;;;;;;9.45;2.90;;;;;;;18.83;100.00;101334.47;4741996;30;20068;-62
2022/07/26 04:07:02;;;;;;;12.70;3.88;;;;;;;18.76;100.00;101335.22;4737210;30;20122;-61
2022/07/26 04:09:29;;;;;;;11.80;4.00;;;;;;;18.80;100.00;101340.16;4736390;30;20064;-62
2022/07/26 04:11:56;;;;;;;8.52;3.60;;;;;;;18.75;100.00;101343.38;4741110;30;20077;-62
2022/07/26 04:14:22;;;;;;;7.28;3.00;;;;;;;18.77;100.00;101344.81;4732493;30;20092;-62
2022/07/26 04:16:49;;;;;;;12.82;3.90;;;;;;;18.74;100.00;101345.22;4740207;30;20052;-63
2022/07/26 04:19:15;;;;;;;10.38;3.55;;;;;;;18.75;100.00;101352.16;4741513;30;20106;-61
2022/07/26 04:21:42;;;;;;;10.05;3.40;;;;;;;18.71;100.00;101348.22;4744312;30;20430;-63
2022/07/26 04:24:08;;;;;;;13.02;3.70;;;;;;;18.69;100.00;101349.44;4726617;30;20064;-62
2022/07/26 04:26:35;;;;;;;14.50;3.70;;;;;;;18.70;100.00;101348.41;4736029;30;20600;-62
2022/07/26 04:29:02;;;;;;;11.52;3.35;;;;;;;18.69;100.00;101354.75;4741678;30;20066;-62
2022/07/26 04:31:29;;;;;;;12.17;3.50;;;;;;;18.64;100.00;101350.00;4732983;30;20056;-62
2022/07/26 04:34:01;;;;;;;11.30;3.70;;;;;;;18.61;100.00;101355.69;4733212;30;20312;-62
2022/07/26 04:36:28;;;;;;;13.48;3.72;;;;;;;18.63;100.00;101366.94;4729124;30;20143;-61
2022/07/26 04:38:54;;;;;;;11.13;3.72;;;;;;;18.62;100.00;101359.16;4738618;30;20053;-61
2022/07/26 04:41:21;;;;;;;13.70;3.45;;;;;;;18.59;100.00;101352.38;4732987;30;20692;-62
2022/07/26 04:43:47;;;;;;;9.30;3.45;;;;;;;18.59;100.00;101360.34;4736475;30;20100;-62
2022/07/26 04:46:13;;;;;;;10.68;3.45;;;;;;;18.56;100.00;101356.25;4734445;30;20056;-63
2022/07/26 04:48:40;;;;;;;14.15;3.65;;;;;;;18.60;100.00;101363.81;4737003;30;20063;-62
2022/07/26 04:51:07;;;;;;;13.27;3.65;;;;;;;18.58;100.00;101359.53;4745575;30;20060;-62
2022/07/26 04:53:33;;;;;;;18.67;4.15;;;;;;;18.52;100.00;101354.97;4741067;30;20071;-61
2022/07/26 04:55:59;;;;;;;12.10;4.47;;;;;;;18.54;100.00;101360.91;4729303;30;20079;-63
2022/07/26 04:58:26;;;;;;;12.25;3.90;;;;;;;18.56;100.00;101361.56;4722172;30;20438;-63
2022/07/26 05:00:52;;;;;;;16.13;3.58;;;;;;;18.56;100.00;101364.22;4738063;30;20057;-63
2022/07/26 05:03:35;;;;;;;12.20;4.40;;;;;;;18.57;100.00;101371.16;4745420;30;20071;-64
2022/07/26 05:06:02;;;;;;;10.00;3.22;;;;;;;18.56;100.00;101372.19;4729127;30;20068;-62
2022/07/26 05:08:28;;;;;;;10.18;4.25;;;;;;;18.55;100.00;101373.19;4741786;30;20103;-62
2022/07/26 05:10:55;;;;;;;8.30;3.50;;;;;;;18.63;100.00;101374.91;4733610;30;20528;-62
2022/07/26 05:13:21;;;;;;;14.07;4.07;;;;;;;18.66;100.00;101379.88;4742564;30;20066;-62
2022/07/26 05:15:56;;;;;;;17.75;3.90;;;;;;;18.63;100.00;101380.22;4740180;30;20066;-61
2022/07/26 05:18:22;;;;;;;10.65;4.05;;;;;;;18.63;100.00;101382.88;4745825;30;20056;-64
2022/07/26 05:20:50;;;;;;;9.20;3.30;;;;;;;18.72;100.00;101386.28;4739385;30;20495;-61
2022/07/26 05:23:17;;;;;;;12.02;4.07;;;;;;;18.69;100.00;101392.75;4728717;30;20112;-62
2022/07/26 05:25:43;;;;;;;11.77;3.85;;;;;;;18.72;100.00;101394.25;4729696;30;20057;-63
2022/07/26 05:28:10;;;;;;;12.57;3.97;;;;;;;18.68;100.00;101399.09;4723637;30;20086;-62
2022/07/26 05:30:37;;;;;;;9.05;3.22;;;;;;;18.71;100.00;101400.56;4745389;30;20068;-63
2022/07/26 05:33:03;;;;;;;11.02;3.33;;;;;;;18.77;100.00;101394.50;4736839;30;20143;-64
2022/07/26 05:35:29;;;;;;;10.95;3.95;;;;;;;18.83;100.00;101400.94;4739260;30;20060;-64
2022/07/26 05:37:56;;;;;;;9.73;2.75;;;;;;;18.86;100.00;101401.38;4732087;30;20072;-63
2022/07/26 05:40:22;;;;;;;12.90;3.65;;;;;;;18.87;100.00;101396.88;4720259;30;20075;-60
2022/07/26 05:42:49;;;;;;;8.65;3.28;;;;;;;18.90;100.00;101400.00;4729399;30;20411;-63
2022/07/26 05:45:15;;;;;;;10.70;3.35;;;;;;;18.94;100.00;101392.47;4736489;30;20087;-63
2022/07/26 05:47:42;;;;;;;8.93;3.00;;;;;;;19.00;100.00;101402.34;4738326;30;20144;-63
2022/07/26 05:50:09;;;;;;;9.48;3.38;;;;;;;18.99;100.00;101400.69;4736712;30;20060;-62
2022/07/26 05:52:35;;;;;;;9.55;3.15;;;;;;;19.01;100.00;101405.84;4746657;30;20059;-61
2022/07/26 05:55:02;;;;;;;9.82;3.03;;;;;;;19.05;100.00;101405.28;4744263;30;20060;-64
2022/07/26 05:57:28;;;;;;;7.97;2.47;;;;;;;19.03;100.00;101404.63;4734766;30;20060;-64
2022/07/26 05:59:55;;;;;;;11.45;2.75;;;;;;;19.11;100.00;101415.16;4737543;30;20427;-63
2022/07/26 06:02:21;;;;;;;11.75;2.72;;;;;;;19.13;100.00;101425.59;4729857;30;20067;-63
2022/07/26 06:04:48;;;;;;;8.77;2.28;;;;;;;19.11;100.00;101416.97;4740109;30;20140;-62
2022/07/26 06:07:15;;;;;;;8.30;2.50;;;;;;;19.14;100.00;101425.41;4732295;30;20434;-63
2022/07/26 06:09:42;;;;;;;13.68;3.28;;;;;;;19.22;100.00;101423.66;4733678;30;20135;-62
2022/07/26 06:12:17;;;;;;;6.63;2.50;;;;;;;19.36;100.00;101423.56;4739480;30;20064;-62
2022/07/26 06:14:44;;;;;;;7.65;2.05;;;;;;;19.50;100.00;101423.72;4750793;30;20663;-62
2022/07/26 06:17:10;;;;;;;11.55;2.45;;;;;;;19.55;100.00;101423.97;4745260;30;20103;-62
2022/07/26 06:19:37;;;;;;;11.65;2.17;;;;;;;19.61;100.00;101435.69;4736690;30;20068;-62
2022/07/26 06:22:04;;;;;;;6.32;2.20;;;;;;;19.63;100.00;101437.13;4730690;30;20150;-62
2022/07/26 06:24:33;;;;;;;5.88;1.90;;;;;;;19.61;100.00;101433.84;4750838;29;20064;-62
2022/07/26 06:26:59;;;;;;;6.03;1.85;;;;;;;19.62;100.00;101432.00;4761815;30;20128;-63
2022/07/26 06:29:31;;;;;;;7.50;2.08;;;;;;;19.67;100.00;101433.06;4750023;30;20140;-62
2022/07/26 06:31:58;;;;;;;4.63;1.83;;;;;;;19.69;100.00;101433.72;4739828;30;20147;-61
2022/07/26 06:34:24;;;;;;;9.63;1.90;;;;;;;19.64;100.00;101432.63;4749289;30;20117;-62
2022/07/26 06:36:51;;;;;;;7.07;1.55;;;;;;;19.59;100.00;101435.88;4746302;30;20428;-63
2022/07/26 06:39:20;;;;;;;5.68;1.63;;;;;;;19.61;100.00;101433.84;4760743;30;20069;-62
2022/07/26 06:41:47;;;;;;;4.70;1.85;;;;;;;19.68;100.00;101433.88;4747084;30;20064;-62
2022/07/26 06:44:14;;;;;;;5.88;1.50;;;;;;;19.70;100.00;101432.72;4748866;30;20063;-62
2022/07/26 06:46:40;;;;;;;7.57;1.75;;;;;;;19.77;100.00;101434.63;4746731;30;20056;-62
2022/07/26 06:49:06;;;;;;;6.32;1.80;;;;;;;19.89;100.00;101435.75;4730404;30;20441;-63
2022/07/26 06:51:33;;;;;;;5.45;1.80;;;;;;;19.87;100.00;101443.91;4747799;30;20063;-62
2022/07/26 06:53:59;;;;;;;5.22;1.42;;;;;;;19.95;100.00;101438.47;4741889;30;20059;-62
2022/07/26 06:56:26;;;;;;;6.85;1.85;;;;;;;20.03;100.00;101437.50;4742664;30;20171;-62
2022/07/26 06:58:54;;;;;;;7.32;1.95;;;;;;;20.12;100.00;101446.16;4744008;30;20996;-62
2022/07/26 07:01:21;;;;;;;7.17;1.93;;;;;;;20.10;100.00;101449.00;4729991;30;20072;-62
2022/07/26 07:04:07;;;;;;;6.13;1.70;;;;;;;20.08;100.00;101443.06;4736174;30;21105;-61
2022/07/26 07:06:34;;;;;;;5.80;1.75;;;;;;;20.20;100.00;101453.19;4747059;30;20052;-62
2022/07/26 07:09:01;;;;;;;7.97;1.80;;;;;;;20.03;100.00;101453.47;4748817;30;20052;-62
2022/07/26 07:11:27;;;;;;;4.32;1.55;;;;;;;20.06;100.00;101453.06;4746764;30;20068;-62
2022/07/26 07:13:54;;;;;;;5.70;1.70;;;;;;;20.09;100.00;101463.34;4746901;30;20064;-62
2022/07/26 07:16:20;;;;;;;5.40;1.60;;;;;;;19.98;100.00;101455.06;4734046;30;20070;-62
2022/07/26 07:18:47;;;;;;;6.90;2.15;;;;;;;19.93;100.00;101455.63;4742152;30;20071;-62
2022/07/26 07:21:14;;;;;;;6.75;2.22;;;;;;;19.92;100.00;101462.00;4746121;30;20059;-63
2022/07/26 07:23:40;;;;;;;9.90;2.47;;;;;;;19.87;100.00;101473.19;4727282;30;20072;-61
2022/07/26 07:26:07;;;;;;;6.15;2.03;;;;;;;19.89;100.00;101473.00;4740137;30;20077;-61
2022/07/26 07:28:37;;;;;;;4.32;1.67;;;;;;;19.84;100.00;101478.09;4740027;30;20098;-60
2022/07/26 07:31:04;;;;;;;3.83;1.45;;;;;;;19.71;100.00;101489.41;4733407;30;20068;-60
2022/07/26 07:33:31;;;;;;;4.40;1.40;;;;;;;19.59;100.00;101493.59;4732847;30;20056;-62
2022/07/26 07:36:17;;;;;;;4.63;1.27;;;;;;;19.53;100.00;101503.97;4744236;30;20067;-62
2022/07/26 07:38:44;;;;;;;3.30;1.25;;;;;;;19.46;100.00;101505.72;4725193;30;20067;-61
2022/07/26 07:41:11;;;;;;;4.35;1.50;;;;;;;19.44;100.00;101506.94;4742561;30;20056;-62
2022/07/26 07:43:37;;;;;;;4.38;1.33;;;;;;;19.41;100.00;101510.00;4732792;30;20434;-61
2022/07/26 07:46:03;;;;;;;5.90;1.30;;;;;;;19.33;100.00;101524.22;4735122;30;20068;-62
2022/07/26 07:48:30;;;;;;;4.38;1.80;;;;;;;19.36;100.00;101516.69;4728784;30;20060;-62
2022/07/26 07:50:57;;;;;;;4.53;1.60;;;;;;;19.22;100.00;101519.38;4725004;30;20122;-62
2022/07/26 07:53:23;;;;;;;4.50;1.60;;;;;;;19.15;100.00;101516.63;4745289;30;20060;-63
2022/07/26 07:55:51;;;;;;;4.93;1.58;;;;;;;19.09;100.00;101528.88;4738169;30;20062;-63
2022/07/26 07:58:20;;;;;;;5.65;1.80;;;;;;;19.09;100.00;101530.69;4735089;30;20080;-62
2022/07/26 08:00:47;;;;;;;6.70;1.85;;;;;;;19.07;100.00;101535.34;4741386;30;20064;-62
2022/07/26 08:03:14;;;;;;;2.47;1.55;;;;;;;19.03;100.00;101526.91;4737309;30;20125;-62
2022/07/26 08:05:45;;;;;;;6.95;1.80;;;;;;;19.03;100.00;101528.75;4739802;30;20059;-62
2022/07/26 08:08:15;;;;;;;3.35;1.60;;;;;;;19.01;100.00;101530.78;4730004;30;20111;-64
2022/07/26 08:10:42;;;;;;;5.40;1.50;;;;;;;18.90;100.00;101537.41;4738732;30;20253;-62
2022/07/26 08:13:17;;;;;;;6.03;1.40;;;;;;;18.96;100.00;101540.13;4730026;29;20146;-63
2022/07/26 08:15:46;;;;;;;4.55;1.42;;;;;;;19.03;100.00;101537.56;4742926;30;20740;-62
2022/07/26 08:18:14;;;;;;;4.80;1.77;;;;;;;19.01;100.00;101544.91;4742140;30;20056;-63
2022/07/26 08:20:42;;;;;;;7.47;1.83;;;;;;;18.94;100.00;101558.09;4729322;30;20419;-62
2022/07/26 08:23:08;;;;;;;5.50;1.92;;;;;;;18.93;100.00;101567.09;4745636;30;20056;-59
2022/07/26 08:25:35;;;;;;;5.22;1.00;;;;;;;18.98;100.00;101571.03;4720723;30;20056;-62
2022/07/26 08:28:11;;;;;;;3.30;1.00;;;;;;;19.06;100.00;101569.09;4734743;30;20052;-61
2022/07/26 08:30:57;;;;;;;3.45;1.10;;;;;;;19.02;100.00;101580.31;4736703;30;20073;-62
2022/07/26 08:33:24;;;;;;;3.03;1.00;;;;;;;18.93;100.00;101569.78;4741597;30;20068;-62
2022/07/26 08:35:51;;;;;;;6.32;1.38;;;;;;;18.89;100.00;101581.75;4726832;30;20061;-63
2022/07/26 08:38:23;;;;;;;3.30;0.93;;;;;;;18.85;100.00;101583.13;4729171;30;20321;-62
2022/07/26 08:40:50;;;;;;;3.60;1.00;;;;;;;18.88;100.00;101587.28;4741516;30;20764;-63
2022/07/26 08:43:16;;;;;;;3.63;0.90;;;;;;;18.87;100.00;101596.22;4734613;30;20062;-63
2022/07/26 08:45:44;;;;;;;3.38;0.80;;;;;;;18.87;100.00;101590.91;4737675;30;20055;-63
2022/07/26 08:48:11;;;;;;;2.38;0.80;;;;;;;18.96;100.00;101606.59;4729449;30;20064;-63
2022/07/26 08:50:43;;;;;;;2.15;0.85;;;;;;;19.04;100.00;101594.22;4727405;30;20062;-63
2022/07/26 08:53:11;;;;;;;1.88;0.88;;;;;;;19.09;100.00;101592.69;4732759;30;20087;-62
2022/07/26 08:55:38;;;;;;;;;;;;;;;19.17;100.00;101599.75;4742766;30;20064;-62
2022/07/26 08:58:25;;;;;;;1.80;0.80;;;;;;;19.22;100.00;101605.31;4731470;30;19930;-61
2022/07/26 09:01:11;;;;;;;2.38;0.98;;;;;;;19.31;100.00;101603.41;4733560;30;20077;-62
2022/07/26 09:03:39;;;;;;;2.72;0.90;;;;;;;19.38;100.00;101593.63;4738506;30;20139;-62
2022/07/26 09:06:17;;;;;;;3.92;0.95;;;;;;;19.50;100.00;101599.31;4719537;30;20064;-62
2022/07/26 09:08:46;;;;;;;1.88;0.80;;;;;;;19.53;100.00;101599.78;4728953;30;20063;-61
2022/07/26 09:11:32;;;;;;;2.20;0.80;;;;;;;19.64;100.00;101602.94;4736436;30;20064;-63
2022/07/26 09:14:01;;;;;;;3.05;1.00;;;;;;;19.71;100.00;101612.69;4741621;30;20082;-62
2022/07/26 09:16:28;;;;;;;3.33;0.80;;;;;;;19.82;100.00;101610.56;4736760;30;20098;-63
2022/07/26 09:19:17;;;;;;;2.33;0.90;;;;;;;19.95;100.00;101616.00;4733712;30;20106;-60
2022/07/26 09:21:45;;;;;;;3.33;1.00;;;;;;;20.10;100.00;101622.13;4714945;30;20061;-61
2022/07/26 09:24:11;;;;;;;3.85;0.70;;;;;;;20.24;100.00;101624.91;4731670;30;20500;-63
2022/07/26 09:26:38;;;;;;;2.35;0.80;;;;;;;20.27;100.00;101625.34;4739455;30;20510;-63
2022/07/26 09:29:10;;;;;;;4.68;0.80;;;;;;;20.29;100.00;101625.19;4737196;30;20075;-60
2022/07/26 09:31:38;;;;;;;0.52;0.52;;;;;;;20.39;100.00;101627.50;4738728;30;20067;-64
2022/07/26 09:34:06;;;;;;;2.33;0.60;;;;;;;20.36;100.00;101628.69;4723821;30;20155;-63
2022/07/26 09:36:52;;;;;;;2.30;0.68;;;;;;;20.39;100.00;101638.19;4735529;30;20053;-61
2022/07/26 09:39:19;;;;;;;3.10;0.60;;;;;;;20.33;100.00;101634.44;4727320;30;20171;-62
2022/07/26 09:42:05;;;;;;;2.67;0.70;;;;;;;20.33;100.00;101645.91;4739509;30;20063;-62
2022/07/26 09:44:53;;;;;;;3.20;0.60;;;;;;;20.19;100.00;101645.94;4741548;30;20059;-62
2022/07/26 09:47:20;;;;;;;3.33;1.10;;;;;;;20.13;100.00;101653.72;4733077;30;20091;-62
2022/07/26 09:49:46;;;;;;;3.90;0.70;;;;;;;20.13;100.00;101650.19;4724624;30;20071;-61
2022/07/26 09:52:20;;;;;;;2.33;0.55;;;;;;;20.14;100.00;101652.69;4738887;30;20064;-63
2022/07/26 09:54:48;;;;;;;2.70;0.90;;;;;;;20.13;100.00;101647.53;4750872;30;20072;-62
2022/07/26 09:57:16;;;;;;;4.30;1.00;;;;;;;20.21;100.00;101651.91;4745916;30;20095;-63
2022/07/26 09:59:44;;;;;;;3.28;0.80;;;;;;;20.27;100.00;101643.19;4749010;30;20800;-62
2022/07/26 10:02:12;;;;;;;3.17;0.80;;;;;;;20.35;100.00;101649.19;4734184;30;20091;-62
2022/07/26 10:04:44;;;;;;;3.55;0.82;;;;;;;20.48;100.00;101653.84;4747842;30;20095;-64
2022/07/26 10:07:11;;;;;;;2.35;0.68;;;;;;;20.58;100.00;101650.00;4738460;30;20071;-62
2022/07/26 10:09:59;;;;;;;2.25;0.63;;;;;;;20.59;100.00;101654.31;4754524;30;20058;-61
2022/07/26 10:12:30;;;;;;;3.30;0.60;;;;;;;20.54;100.00;101657.56;4728542;30;20498;-60
2022/07/26 10:14:56;;;;;;;2.05;0.60;;;;;;;20.59;100.00;101667.66;4736078;30;20155;-62
2022/07/26 10:17:25;;;;;;;2.83;0.90;;;;;;;20.62;100.00;101668.13;4737338;30;20064;-61
2022/07/26 10:20:00;;;;;;;4.10;1.00;;;;;;;20.63;100.00;101672.44;4743625;30;20437;-62
2022/07/26 10:22:32;;;;;;;2.60;0.60;;;;;;;20.66;100.00;101674.72;4744133;30;20064;-61
2022/07/26 10:25:17;;;;;;;3.03;0.68;;;;;;;20.69;100.00;101679.66;4733076;30;20057;-62
2022/07/26 10:27:45;;;;;;;2.33;0.60;;;;;;;20.79;100.00;101679.31;4737762;30;20057;-61
2022/07/26 10:30:21;;;;;;;6.00;0.82;;;;;;;20.92;100.00;101679.44;4725662;30;20151;-61
2022/07/26 10:32:51;;;;;;;2.63;0.85;;;;;;;20.82;100.00;101684.28;4744763;30;20119;-61
2022/07/26 10:35:35;;;;;;;2.15;0.60;;;;;;;20.88;100.00;101690.69;4747772;30;20155;-62
2022/07/26 10:38:04;;;;;;;6.15;1.00;;;;;;;20.78;100.00;101704.34;4747838;30;20059;-61
2022/07/26 10:40:31;;;;;;;6.03;0.82;;;;;;;20.41;100.00;101711.56;4746771;30;20068;-62
2022/07/26 10:43:12;;;;;;;2.20;0.60;;;;;;;20.10;100.00;101710.00;4730645;30;20064;-63
2022/07/26 10:46:14;;;;;;;2.50;0.60;;;;;;;19.97;100.00;101709.03;4732008;30;20056;-63
2022/07/26 10:49:05;;;;;;;2.78;0.85;;;;;;;19.99;100.00;101707.81;4733710;30;20061;-63
2022/07/26 10:51:39;;;;;;;1.48;0.55;;;;;;;19.93;100.00;101703.25;4742307;30;20135;-63
2022/07/26 10:54:07;;;;;;;6.32;1.20;;;;;;;20.06;100.00;101705.25;4739074;30;20070;-62
2022/07/26 10:56:35;;;;;;;3.25;0.70;;;;;;;20.29;100.00;101707.75;4735583;30;20064;-64
2022/07/26 10:59:03;;;;;;;2.17;0.80;;;;;;;20.69;100.00;101702.81;4738265;30;20052;-62
2022/07/26 11:01:41;;;;;;;3.63;0.75;;;;;;;20.86;100.00;101709.53;4738679;30;20151;-63
2022/07/26 11:04:18;;;;;;;4.90;0.90;;;;;;;21.07;100.00;101710.50;4738482;30;20430;-63
2022/07/26 11:06:45;;;;;;;4.38;0.80;;;;;;;21.05;100.00;101704.53;4748536;30;20486;-63
2022/07/26 11:09:12;;;;;;;2.80;0.85;;;;;;;21.18;100.00;101712.63;4738678;30;20060;-60
2022/07/26 11:11:39;;;;;;;3.22;0.80;;;;;;;21.32;100.00;101717.03;4730865;30;20068;-61
2022/07/26 11:14:14;;;;;;;1.90;0.73;;;;;;;21.38;100.00;101718.09;4739547;30;20067;-62
2022/07/26 11:16:47;;;;;;;6.13;0.85;;;;;;;21.60;100.00;101718.88;4738012;30;20067;-62
2022/07/26 11:19:16;;;;;;;5.05;1.00;;;;;;;21.80;100.00;101710.94;4738461;30;20060;-62
2022/07/26 11:21:44;;;;;;;3.08;0.82;;;;;;;22.03;100.00;101717.81;4730371;30;20136;-64
2022/07/26 11:24:11;;;;;;;;;;;;;;;22.09;100.00;101712.50;4729254;30;20087;-61